sensor_id;sensor_type;location;lat;lon;timestamp;P1;durP1;ratioP1;P2;durP2;ratioP2
74650;SDS011;63169;46.042;14.592;2023-02-01T00:01:22;9.40;;;7.05;;
74650;SDS011;63169;46.042;14.592;2023-02-01T00:03:47;7.40;;;3.35;;
74650;SDS011;63169;46.042;14.592;2023-02-01T00:06:12;9.40;;;3.45;;
74650;SDS011;63169;46.042;14.592;2023-02-01T00:08:38;10.55;;;5.50;;
74650;SDS011;63169;46.042;14.592;2023-02-01T00:11:04;9.68;;;6.18;;
74650;SDS011;63169;46.042;14.592;2023-02-01T00:13:31;6.72;;;5.20;;
74650;SDS011;63169;46.042;14.592;2023-02-01T00:18:33;7.97;;;3.33;;
74650;SDS011;63169;46.042;14.592;2023-02-01T00:20:59;9.15;;;3.55;;
74650;SDS011;63169;46.042;14.592;2023-02-01T00:23:24;8.57;;;4.00;;
74650;SDS011;63169;46.042;14.592;2023-02-01T00:25:50;7.07;;;5.90;;
74650;SDS011;63169;46.042;14.592;2023-02-01T00:28:15;12.70;;;8.82;;
74650;SDS011;63169;46.042;14.592;2023-02-01T00:30:41;7.40;;;2.92;;
74650;SDS011;63169;46.042;14.592;2023-02-01T00:33:06;9.35;;;6.90;;
74650;SDS011;63169;46.042;14.592;2023-02-01T00:35:34;8.80;;;7.40;;
74650;SDS011;63169;46.042;14.592;2023-02-01T00:38:00;12.25;;;4.82;;
74650;SDS011;63169;46.042;14.592;2023-02-01T00:40:25;12.23;;;5.30;;
74650;SDS011;63169;46.042;14.592;2023-02-01T00:42:51;10.63;;;5.60;;
74650;SDS011;63169;46.042;14.592;2023-02-01T00:45:17;17.10;;;7.97;;
74650;SDS011;63169;46.042;14.592;2023-02-01T00:47:42;14.30;;;9.38;;
74650;SDS011;63169;46.042;14.592;2023-02-01T00:50:08;18.13;;;7.18;;
74650;SDS011;63169;46.042;14.592;2023-02-01T00:52:33;16.80;;;10.98;;
74650;SDS011;63169;46.042;14.592;2023-02-01T00:54:59;13.35;;;7.10;;
74650;SDS011;63169;46.042;14.592;2023-02-01T00:57:24;18.67;;;7.22;;
74650;SDS011;63169;46.042;14.592;2023-02-01T00:59:49;15.85;;;10.95;;
74650;SDS011;63169;46.042;14.592;2023-02-01T01:02:15;18.10;;;6.80;;
74650;SDS011;63169;46.042;14.592;2023-02-01T01:04:40;16.35;;;7.93;;
74650;SDS011;63169;46.042;14.592;2023-02-01T01:07:05;15.00;;;8.45;;
74650;SDS011;63169;46.042;14.592;2023-02-01T01:09:31;17.77;;;5.45;;
74650;SDS011;63169;46.042;14.592;2023-02-01T01:11:56;15.52;;;5.88;;
74650;SDS011;63169;46.042;14.592;2023-02-01T01:14:22;13.80;;;8.70;;
74650;SDS011;63169;46.042;14.592;2023-02-01T01:16:47;14.02;;;9.85;;
74650;SDS011;63169;46.042;14.592;2023-02-01T01:19:15;13.20;;;5.50;;
74650;SDS011;63169;46.042;14.592;2023-02-01T01:21:40;12.82;;;8.52;;
74650;SDS011;63169;46.042;14.592;2023-02-01T01:24:06;12.55;;;5.55;;
74650;SDS011;63169;46.042;14.592;2023-02-01T01:26:31;11.88;;;5.47;;
74650;SDS011;63169;46.042;14.592;2023-02-01T01:28:57;12.52;;;8.35;;
74650;SDS011;63169;46.042;14.592;2023-02-01T01:31:24;14.55;;;7.53;;
74650;SDS011;63169;46.042;14.592;2023-02-01T01:33:50;12.50;;;5.53;;
74650;SDS011;63169;46.042;14.592;2023-02-01T01:36:17;14.55;;;6.90;;
74650;SDS011;63169;46.042;14.592;2023-02-01T01:38:42;15.63;;;6.22;;
74650;SDS011;63169;46.042;14.592;2023-02-01T01:41:08;12.95;;;5.63;;
74650;SDS011;63169;46.042;14.592;2023-02-01T01:43:48;11.52;;;5.68;;
74650;SDS011;63169;46.042;14.592;2023-02-01T01:46:15;12.38;;;7.57;;
74650;SDS011;63169;46.042;14.592;2023-02-01T01:48:44;12.10;;;5.10;;
74650;SDS011;63169;46.042;14.592;2023-02-01T01:51:11;12.90;;;7.50;;
74650;SDS011;63169;46.042;14.592;2023-02-01T01:53:39;11.75;;;8.18;;
74650;SDS011;63169;46.042;14.592;2023-02-01T01:56:10;11.98;;;4.78;;
74650;SDS011;63169;46.042;14.592;2023-02-01T01:58:36;9.93;;;5.60;;
74650;SDS011;63169;46.042;14.592;2023-02-01T02:01:02;9.98;;;4.03;;
74650;SDS011;63169;46.042;14.592;2023-02-01T02:03:31;11.73;;;5.03;;
74650;SDS011;63169;46.042;14.592;2023-02-01T02:05:59;10.05;;;5.18;;
74650;SDS011;63169;46.042;14.592;2023-02-01T02:08:26;13.73;;;6.18;;
74650;SDS011;63169;46.042;14.592;2023-02-01T02:10:52;11.27;;;4.93;;
74650;SDS011;63169;46.042;14.592;2023-02-01T02:13:36;14.02;;;9.25;;
74650;SDS011;63169;46.042;14.592;2023-02-01T02:30:13;16.55;;;8.68;;
74650;SDS011;63169;46.042;14.592;2023-02-01T02:36:10;17.08;;;9.30;;
74650;SDS011;63169;46.042;14.592;2023-02-01T02:38:49;16.23;;;9.45;;
74650;SDS011;63169;46.042;14.592;2023-02-01T02:41:20;17.75;;;10.63;;
74650;SDS011;63169;46.042;14.592;2023-02-01T02:50:44;16.65;;;7.00;;
74650;SDS011;63169;46.042;14.592;2023-02-01T02:56:42;17.83;;;10.43;;
74650;SDS011;63169;46.042;14.592;2023-02-01T02:59:26;19.17;;;11.65;;
74650;SDS011;63169;46.042;14.592;2023-02-01T03:02:12;16.30;;;7.20;;
74650;SDS011;63169;46.042;14.592;2023-02-01T03:04:56;16.58;;;9.43;;
74650;SDS011;63169;46.042;14.592;2023-02-01T03:10:24;10.02;;;7.30;;
74650;SDS011;63169;46.042;14.592;2023-02-01T03:16:20;12.18;;;5.75;;
74650;SDS011;63169;46.042;14.592;2023-02-01T03:18:55;13.32;;;7.75;;
74650;SDS011;63169;46.042;14.592;2023-02-01T03:21:28;12.00;;;4.15;;
74650;SDS011;63169;46.042;14.592;2023-02-01T03:23:58;8.63;;;4.15;;
74650;SDS011;63169;46.042;14.592;2023-02-01T03:26:26;12.23;;;4.63;;
74650;SDS011;63169;46.042;14.592;2023-02-01T03:28:57;10.45;;;4.90;;
74650;SDS011;63169;46.042;14.592;2023-02-01T03:31:28;13.40;;;7.47;;
74650;SDS011;63169;46.042;14.592;2023-02-01T03:33:54;12.23;;;4.85;;
74650;SDS011;63169;46.042;14.592;2023-02-01T03:36:29;12.63;;;5.30;;
74650;SDS011;63169;46.042;14.592;2023-02-01T03:44:26;11.93;;;4.75;;
74650;SDS011;63169;46.042;14.592;2023-02-01T03:46:57;11.20;;;4.95;;
74650;SDS011;63169;46.042;14.592;2023-02-01T03:49:39;11.00;;;5.75;;
74650;SDS011;63169;46.042;14.592;2023-02-01T03:52:06;15.02;;;8.68;;
74650;SDS011;63169;46.042;14.592;2023-02-01T03:54:35;12.70;;;5.70;;
74650;SDS011;63169;46.042;14.592;2023-02-01T03:57:03;13.82;;;5.90;;
74650;SDS011;63169;46.042;14.592;2023-02-01T03:59:31;12.30;;;8.98;;
74650;SDS011;63169;46.042;14.592;2023-02-01T04:01:56;13.85;;;5.78;;
74650;SDS011;63169;46.042;14.592;2023-02-01T04:04:22;13.82;;;8.35;;
74650;SDS011;63169;46.042;14.592;2023-02-01T04:06:47;14.55;;;10.18;;
74650;SDS011;63169;46.042;14.592;2023-02-01T04:09:16;14.73;;;8.70;;
74650;SDS011;63169;46.042;14.592;2023-02-01T04:11:41;14.00;;;8.55;;
74650;SDS011;63169;46.042;14.592;2023-02-01T04:14:07;13.32;;;8.93;;
74650;SDS011;63169;46.042;14.592;2023-02-01T04:16:32;14.15;;;5.93;;
74650;SDS011;63169;46.042;14.592;2023-02-01T04:18:58;10.43;;;9.15;;
74650;SDS011;63169;46.042;14.592;2023-02-01T04:21:24;10.80;;;5.05;;
74650;SDS011;63169;46.042;14.592;2023-02-01T04:23:50;10.05;;;7.20;;
74650;SDS011;63169;46.042;14.592;2023-02-01T04:26:16;10.68;;;7.35;;
74650;SDS011;63169;46.042;14.592;2023-02-01T04:28:41;12.52;;;8.27;;
74650;SDS011;63169;46.042;14.592;2023-02-01T04:31:07;14.23;;;5.07;;
74650;SDS011;63169;46.042;14.592;2023-02-01T04:33:32;14.82;;;6.80;;
74650;SDS011;63169;46.042;14.592;2023-02-01T04:35:58;13.98;;;9.40;;
74650;SDS011;63169;46.042;14.592;2023-02-01T04:38:23;14.23;;;5.47;;
74650;SDS011;63169;46.042;14.592;2023-02-01T04:40:48;8.55;;;4.32;;
74650;SDS011;63169;46.042;14.592;2023-02-01T04:43:14;11.23;;;5.00;;
74650;SDS011;63169;46.042;14.592;2023-02-01T04:45:41;12.30;;;8.23;;
74650;SDS011;63169;46.042;14.592;2023-02-01T04:48:06;13.52;;;5.97;;
74650;SDS011;63169;46.042;14.592;2023-02-01T04:50:31;20.10;;;12.23;;
74650;SDS011;63169;46.042;14.592;2023-02-01T04:52:57;29.27;;;11.50;;
74650;SDS011;63169;46.042;14.592;2023-02-01T04:55:22;27.23;;;10.90;;
74650;SDS011;63169;46.042;14.592;2023-02-01T04:57:47;19.65;;;10.73;;
74650;SDS011;63169;46.042;14.592;2023-02-01T05:00:13;10.82;;;5.82;;
74650;SDS011;63169;46.042;14.592;2023-02-01T05:02:38;14.00;;;4.60;;
74650;SDS011;63169;46.042;14.592;2023-02-01T05:05:04;12.13;;;8.15;;
74650;SDS011;63169;46.042;14.592;2023-02-01T05:07:30;11.23;;;6.93;;
74650;SDS011;63169;46.042;14.592;2023-02-01T05:09:55;9.93;;;7.82;;
74650;SDS011;63169;46.042;14.592;2023-02-01T05:12:20;12.15;;;5.38;;
74650;SDS011;63169;46.042;14.592;2023-02-01T05:15:05;10.85;;;4.07;;
74650;SDS011;63169;46.042;14.592;2023-02-01T05:17:30;10.57;;;4.18;;
74650;SDS011;63169;46.042;14.592;2023-02-01T05:19:56;10.25;;;4.22;;
74650;SDS011;63169;46.042;14.592;2023-02-01T05:22:22;11.60;;;7.60;;
74650;SDS011;63169;46.042;14.592;2023-02-01T05:24:47;14.18;;;5.13;;
74650;SDS011;63169;46.042;14.592;2023-02-01T05:27:12;10.60;;;8.77;;
74650;SDS011;63169;46.042;14.592;2023-02-01T05:29:38;14.85;;;6.93;;
74650;SDS011;63169;46.042;14.592;2023-02-01T05:32:03;14.48;;;7.70;;
74650;SDS011;63169;46.042;14.592;2023-02-01T05:34:29;14.80;;;8.80;;
74650;SDS011;63169;46.042;14.592;2023-02-01T05:36:54;10.80;;;7.93;;
74650;SDS011;63169;46.042;14.592;2023-02-01T05:39:19;11.82;;;7.70;;
74650;SDS011;63169;46.042;14.592;2023-02-01T05:41:45;13.00;;;5.15;;
74650;SDS011;63169;46.042;14.592;2023-02-01T05:44:10;11.50;;;4.40;;
74650;SDS011;63169;46.042;14.592;2023-02-01T05:46:36;12.95;;;5.70;;
74650;SDS011;63169;46.042;14.592;2023-02-01T05:49:02;9.80;;;5.10;;
74650;SDS011;63169;46.042;14.592;2023-02-01T05:51:28;14.48;;;8.75;;
74650;SDS011;63169;46.042;14.592;2023-02-01T05:53:54;12.15;;;5.32;;
74650;SDS011;63169;46.042;14.592;2023-02-01T05:56:19;11.43;;;8.07;;
74650;SDS011;63169;46.042;14.592;2023-02-01T05:58:44;12.55;;;6.40;;
74650;SDS011;63169;46.042;14.592;2023-02-01T06:01:10;14.45;;;9.02;;
74650;SDS011;63169;46.042;14.592;2023-02-01T06:03:35;14.38;;;7.35;;
74650;SDS011;63169;46.042;14.592;2023-02-01T06:06:01;13.20;;;7.35;;
74650;SDS011;63169;46.042;14.592;2023-02-01T06:08:26;9.43;;;4.18;;
74650;SDS011;63169;46.042;14.592;2023-02-01T06:11:02;12.48;;;8.60;;
74650;SDS011;63169;46.042;14.592;2023-02-01T06:13:28;9.55;;;4.53;;
74650;SDS011;63169;46.042;14.592;2023-02-01T06:15:54;10.02;;;5.13;;
74650;SDS011;63169;46.042;14.592;2023-02-01T06:18:20;15.95;;;9.70;;
74650;SDS011;63169;46.042;14.592;2023-02-01T06:20:51;17.23;;;11.25;;
74650;SDS011;63169;46.042;14.592;2023-02-01T06:23:20;18.90;;;7.00;;
74650;SDS011;63169;46.042;14.592;2023-02-01T06:25:49;16.27;;;7.43;;
74650;SDS011;63169;46.042;14.592;2023-02-01T06:28:18;12.85;;;7.82;;
74650;SDS011;63169;46.042;14.592;2023-02-01T06:30:44;18.75;;;7.70;;
74650;SDS011;63169;46.042;14.592;2023-02-01T06:33:11;14.10;;;9.55;;
74650;SDS011;63169;46.042;14.592;2023-02-01T06:35:39;11.98;;;6.10;;
74650;SDS011;63169;46.042;14.592;2023-02-01T06:38:06;12.40;;;6.43;;
74650;SDS011;63169;46.042;14.592;2023-02-01T06:40:31;13.32;;;5.60;;
74650;SDS011;63169;46.042;14.592;2023-02-01T06:42:57;17.77;;;8.43;;
74650;SDS011;63169;46.042;14.592;2023-02-01T06:45:23;18.90;;;8.30;;
74650;SDS011;63169;46.042;14.592;2023-02-01T06:47:48;16.73;;;7.03;;
74650;SDS011;63169;46.042;14.592;2023-02-01T06:50:14;19.88;;;12.10;;
74650;SDS011;63169;46.042;14.592;2023-02-01T06:52:39;16.17;;;11.77;;
74650;SDS011;63169;46.042;14.592;2023-02-01T06:55:05;16.65;;;11.15;;
74650;SDS011;63169;46.042;14.592;2023-02-01T06:57:31;16.27;;;10.07;;
74650;SDS011;63169;46.042;14.592;2023-02-01T06:59:58;15.90;;;7.85;;
74650;SDS011;63169;46.042;14.592;2023-02-01T07:02:23;17.40;;;7.65;;
74650;SDS011;63169;46.042;14.592;2023-02-01T07:04:49;19.42;;;11.73;;
74650;SDS011;63169;46.042;14.592;2023-02-01T07:07:14;15.20;;;12.77;;
74650;SDS011;63169;46.042;14.592;2023-02-01T07:09:40;18.27;;;7.38;;
74650;SDS011;63169;46.042;14.592;2023-02-01T07:12:05;17.77;;;7.88;;
74650;SDS011;63169;46.042;14.592;2023-02-01T07:14:31;18.17;;;10.90;;
74650;SDS011;63169;46.042;14.592;2023-02-01T07:16:56;12.68;;;6.95;;
74650;SDS011;63169;46.042;14.592;2023-02-01T07:19:22;15.40;;;9.38;;
74650;SDS011;63169;46.042;14.592;2023-02-01T07:21:47;19.10;;;8.55;;
74650;SDS011;63169;46.042;14.592;2023-02-01T07:24:12;22.40;;;11.30;;
74650;SDS011;63169;46.042;14.592;2023-02-01T07:26:39;26.35;;;15.50;;
74650;SDS011;63169;46.042;14.592;2023-02-01T07:29:04;22.88;;;13.45;;
74650;SDS011;63169;46.042;14.592;2023-02-01T07:31:30;28.05;;;16.00;;
74650;SDS011;63169;46.042;14.592;2023-02-01T07:33:55;30.65;;;15.55;;
74650;SDS011;63169;46.042;14.592;2023-02-01T07:36:22;70.25;;;26.80;;
74650;SDS011;63169;46.042;14.592;2023-02-01T07:38:47;36.13;;;13.32;;
74650;SDS011;63169;46.042;14.592;2023-02-01T07:41:13;29.75;;;15.60;;
74650;SDS011;63169;46.042;14.592;2023-02-01T07:43:38;20.65;;;10.68;;
74650;SDS011;63169;46.042;14.592;2023-02-01T07:46:04;19.25;;;8.30;;
74650;SDS011;63169;46.042;14.592;2023-02-01T07:48:30;13.27;;;8.48;;
74650;SDS011;63169;46.042;14.592;2023-02-01T07:51:00;14.65;;;6.25;;
74650;SDS011;63169;46.042;14.592;2023-02-01T07:53:30;16.13;;;6.70;;
74650;SDS011;63169;46.042;14.592;2023-02-01T07:55:56;15.13;;;11.13;;
74650;SDS011;63169;46.042;14.592;2023-02-01T07:58:22;13.77;;;9.80;;
74650;SDS011;63169;46.042;14.592;2023-02-01T08:00:48;16.25;;;10.68;;
74650;SDS011;63169;46.042;14.592;2023-02-01T08:03:31;17.73;;;10.75;;
74650;SDS011;63169;46.042;14.592;2023-02-01T08:05:57;31.13;;;15.65;;
74650;SDS011;63169;46.042;14.592;2023-02-01T08:08:22;26.23;;;11.13;;
74650;SDS011;63169;46.042;14.592;2023-02-01T08:10:48;23.95;;;14.30;;
74650;SDS011;63169;46.042;14.592;2023-02-01T08:13:13;27.17;;;13.70;;
74650;SDS011;63169;46.042;14.592;2023-02-01T08:15:39;31.20;;;17.45;;
74650;SDS011;63169;46.042;14.592;2023-02-01T08:18:04;20.85;;;13.02;;
74650;SDS011;63169;46.042;14.592;2023-02-01T08:20:30;27.63;;;17.23;;
74650;SDS011;63169;46.042;14.592;2023-02-01T08:22:56;45.10;;;29.63;;
74650;SDS011;63169;46.042;14.592;2023-02-01T08:25:21;25.02;;;17.48;;
74650;SDS011;63169;46.042;14.592;2023-02-01T08:27:47;22.65;;;17.20;;
74650;SDS011;63169;46.042;14.592;2023-02-01T08:30:13;25.40;;;16.90;;
74650;SDS011;63169;46.042;14.592;2023-02-01T08:32:39;20.38;;;14.05;;
74650;SDS011;63169;46.042;14.592;2023-02-01T08:35:04;25.92;;;15.27;;
74650;SDS011;63169;46.042;14.592;2023-02-01T08:37:30;23.20;;;17.15;;
74650;SDS011;63169;46.042;14.592;2023-02-01T08:39:55;21.73;;;11.32;;
74650;SDS011;63169;46.042;14.592;2023-02-01T08:42:23;26.33;;;17.98;;
74650;SDS011;63169;46.042;14.592;2023-02-01T08:45:07;30.50;;;16.27;;
74650;SDS011;63169;46.042;14.592;2023-02-01T08:47:34;38.67;;;16.33;;
74650;SDS011;63169;46.042;14.592;2023-02-01T08:49:59;29.15;;;15.02;;
74650;SDS011;63169;46.042;14.592;2023-02-01T08:52:25;23.48;;;13.57;;
74650;SDS011;63169;46.042;14.592;2023-02-01T08:54:50;22.10;;;14.95;;
74650;SDS011;63169;46.042;14.592;2023-02-01T08:57:15;27.27;;;11.70;;
74650;SDS011;63169;46.042;14.592;2023-02-01T08:59:41;22.23;;;11.05;;
74650;SDS011;63169;46.042;14.592;2023-02-01T09:02:11;21.55;;;14.80;;
74650;SDS011;63169;46.042;14.592;2023-02-01T09:04:37;31.83;;;16.20;;
74650;SDS011;63169;46.042;14.592;2023-02-01T09:07:03;27.73;;;15.77;;
74650;SDS011;63169;46.042;14.592;2023-02-01T09:09:28;23.58;;;10.60;;
74650;SDS011;63169;46.042;14.592;2023-02-01T09:11:53;20.85;;;15.38;;
74650;SDS011;63169;46.042;14.592;2023-02-01T09:14:19;22.33;;;13.95;;
74650;SDS011;63169;46.042;14.592;2023-02-01T09:16:44;19.83;;;12.93;;
74650;SDS011;63169;46.042;14.592;2023-02-01T09:19:09;20.75;;;12.80;;
74650;SDS011;63169;46.042;14.592;2023-02-01T09:21:35;21.25;;;14.40;;
74650;SDS011;63169;46.042;14.592;2023-02-01T09:24:00;21.02;;;12.55;;
74650;SDS011;63169;46.042;14.592;2023-02-01T09:26:25;25.05;;;12.75;;
74650;SDS011;63169;46.042;14.592;2023-02-01T09:28:51;22.58;;;15.65;;
74650;SDS011;63169;46.042;14.592;2023-02-01T09:31:16;24.15;;;14.55;;
74650;SDS011;63169;46.042;14.592;2023-02-01T09:33:42;23.90;;;11.25;;
74650;SDS011;63169;46.042;14.592;2023-02-01T09:36:07;22.75;;;15.52;;
74650;SDS011;63169;46.042;14.592;2023-02-01T09:38:33;24.90;;;15.38;;
74650;SDS011;63169;46.042;14.592;2023-02-01T09:40:58;18.83;;;10.57;;
74650;SDS011;63169;46.042;14.592;2023-02-01T09:43:28;27.42;;;13.32;;
74650;SDS011;63169;46.042;14.592;2023-02-01T09:48:34;20.15;;;13.85;;
74650;SDS011;63169;46.042;14.592;2023-02-01T09:51:02;24.10;;;13.68;;
74650;SDS011;63169;46.042;14.592;2023-02-01T09:53:31;21.60;;;12.90;;
74650;SDS011;63169;46.042;14.592;2023-02-01T09:56:04;27.35;;;14.35;;
74650;SDS011;63169;46.042;14.592;2023-02-01T10:00:57;18.08;;;11.02;;
74650;SDS011;63169;46.042;14.592;2023-02-01T10:03:26;17.02;;;11.65;;
74650;SDS011;63169;46.042;14.592;2023-02-01T10:16:47;18.17;;;13.52;;
74650;SDS011;63169;46.042;14.592;2023-02-01T10:22:07;12.80;;;10.50;;
74650;SDS011;63169;46.042;14.592;2023-02-01T10:24:47;15.07;;;10.80;;
74650;SDS011;63169;46.042;14.592;2023-02-01T10:27:43;17.60;;;11.75;;
74650;SDS011;63169;46.042;14.592;2023-02-01T10:32:54;17.15;;;12.75;;
74650;SDS011;63169;46.042;14.592;2023-02-01T10:35:25;19.20;;;11.07;;
74650;SDS011;63169;46.042;14.592;2023-02-01T10:37:52;16.10;;;10.00;;
74650;SDS011;63169;46.042;14.592;2023-02-01T10:40:19;18.13;;;11.80;;
74650;SDS011;63169;46.042;14.592;2023-02-01T10:42:51;19.63;;;13.13;;
74650;SDS011;63169;46.042;14.592;2023-02-01T10:45:21;19.25;;;11.77;;
74650;SDS011;63169;46.042;14.592;2023-02-01T10:47:48;17.38;;;10.43;;
74650;SDS011;63169;46.042;14.592;2023-02-01T10:50:29;14.90;;;7.20;;
74650;SDS011;63169;46.042;14.592;2023-02-01T10:53:16;21.05;;;8.10;;
74650;SDS011;63169;46.042;14.592;2023-02-01T10:56:11;19.30;;;11.85;;
74650;SDS011;63169;46.042;14.592;2023-02-01T10:58:44;18.80;;;10.25;;
74650;SDS011;63169;46.042;14.592;2023-02-01T11:01:16;22.83;;;10.77;;
74650;SDS011;63169;46.042;14.592;2023-02-01T11:03:58;14.65;;;8.13;;
74650;SDS011;63169;46.042;14.592;2023-02-01T11:06:31;12.55;;;7.93;;
74650;SDS011;63169;46.042;14.592;2023-02-01T11:11:34;15.23;;;10.68;;
74650;SDS011;63169;46.042;14.592;2023-02-01T11:14:19;14.98;;;9.82;;
74650;SDS011;63169;46.042;14.592;2023-02-01T11:16:50;16.15;;;9.55;;
74650;SDS011;63169;46.042;14.592;2023-02-01T11:19:18;11.95;;;8.27;;
74650;SDS011;63169;46.042;14.592;2023-02-01T11:21:44;11.75;;;7.95;;
74650;SDS011;63169;46.042;14.592;2023-02-01T11:24:22;13.77;;;7.80;;
74650;SDS011;63169;46.042;14.592;2023-02-01T11:26:56;15.88;;;9.60;;
74650;SDS011;63169;46.042;14.592;2023-02-01T11:29:23;12.75;;;9.13;;
74650;SDS011;63169;46.042;14.592;2023-02-01T11:31:55;16.38;;;9.52;;
74650;SDS011;63169;46.042;14.592;2023-02-01T11:34:22;13.23;;;9.40;;
74650;SDS011;63169;46.042;14.592;2023-02-01T11:36:50;13.93;;;9.63;;
74650;SDS011;63169;46.042;14.592;2023-02-01T11:44:30;17.95;;;10.27;;
74650;SDS011;63169;46.042;14.592;2023-02-01T11:49:52;16.15;;;11.63;;
74650;SDS011;63169;46.042;14.592;2023-02-01T11:58:10;23.45;;;14.23;;
74650;SDS011;63169;46.042;14.592;2023-02-01T12:25:14;25.35;;;13.50;;
74650;SDS011;63169;46.042;14.592;2023-02-01T12:39:09;22.77;;;15.15;;
74650;SDS011;63169;46.042;14.592;2023-02-01T12:44:03;24.60;;;11.82;;
74650;SDS011;63169;46.042;14.592;2023-02-01T12:51:40;28.33;;;16.90;;
74650;SDS011;63169;46.042;14.592;2023-02-01T12:59:13;24.77;;;11.93;;
74650;SDS011;63169;46.042;14.592;2023-02-01T13:01:45;26.38;;;16.50;;
74650;SDS011;63169;46.042;14.592;2023-02-01T13:04:20;24.30;;;16.80;;
74650;SDS011;63169;46.042;14.592;2023-02-01T13:06:52;27.23;;;16.42;;
74650;SDS011;63169;46.042;14.592;2023-02-01T13:12:11;26.33;;;17.15;;
74650;SDS011;63169;46.042;14.592;2023-02-01T13:15:01;26.80;;;15.98;;
74650;SDS011;63169;46.042;14.592;2023-02-01T13:17:36;28.63;;;14.07;;
74650;SDS011;63169;46.042;14.592;2023-02-01T13:22:39;34.40;;;21.10;;
74650;SDS011;63169;46.042;14.592;2023-02-01T13:25:12;39.70;;;20.35;;
74650;SDS011;63169;46.042;14.592;2023-02-01T13:27:39;31.52;;;19.60;;
74650;SDS011;63169;46.042;14.592;2023-02-01T13:30:11;26.77;;;15.95;;
74650;SDS011;63169;46.042;14.592;2023-02-01T13:38:06;29.92;;;16.35;;
74650;SDS011;63169;46.042;14.592;2023-02-01T13:40:45;23.65;;;11.65;;
74650;SDS011;63169;46.042;14.592;2023-02-01T13:43:28;31.92;;;16.17;;
74650;SDS011;63169;46.042;14.592;2023-02-01T13:45:56;44.50;;;18.35;;
74650;SDS011;63169;46.042;14.592;2023-02-01T13:48:30;32.45;;;16.20;;
74650;SDS011;63169;46.042;14.592;2023-02-01T13:51:11;30.95;;;17.20;;
74650;SDS011;63169;46.042;14.592;2023-02-01T13:53:37;32.88;;;18.27;;
74650;SDS011;63169;46.042;14.592;2023-02-01T13:56:15;48.00;;;17.98;;
74650;SDS011;63169;46.042;14.592;2023-02-01T13:58:42;25.73;;;15.55;;
74650;SDS011;63169;46.042;14.592;2023-02-01T14:03:47;24.38;;;14.48;;
74650;SDS011;63169;46.042;14.592;2023-02-01T14:12:04;33.58;;;18.77;;
74650;SDS011;63169;46.042;14.592;2023-02-01T14:17:48;23.60;;;16.33;;
74650;SDS011;63169;46.042;14.592;2023-02-01T14:23:18;28.05;;;16.63;;
74650;SDS011;63169;46.042;14.592;2023-02-01T14:25:46;24.77;;;15.32;;
74650;SDS011;63169;46.042;14.592;2023-02-01T14:28:21;20.98;;;13.77;;
74650;SDS011;63169;46.042;14.592;2023-02-01T14:30:50;25.73;;;16.88;;
74650;SDS011;63169;46.042;14.592;2023-02-01T14:33:20;33.83;;;16.55;;
74650;SDS011;63169;46.042;14.592;2023-02-01T14:38:32;30.55;;;17.08;;
74650;SDS011;63169;46.042;14.592;2023-02-01T14:44:22;25.25;;;15.45;;
74650;SDS011;63169;46.042;14.592;2023-02-01T14:49:33;24.90;;;11.25;;
74650;SDS011;63169;46.042;14.592;2023-02-01T14:52:02;25.42;;;16.42;;
74650;SDS011;63169;46.042;14.592;2023-02-01T14:54:29;25.75;;;16.33;;
74650;SDS011;63169;46.042;14.592;2023-02-01T14:56:55;25.80;;;12.85;;
74650;SDS011;63169;46.042;14.592;2023-02-01T14:59:21;32.15;;;15.75;;
74650;SDS011;63169;46.042;14.592;2023-02-01T15:01:53;20.95;;;11.20;;
74650;SDS011;63169;46.042;14.592;2023-02-01T15:04:20;19.02;;;12.35;;
74650;SDS011;63169;46.042;14.592;2023-02-01T15:09:28;20.73;;;11.32;;
74650;SDS011;63169;46.042;14.592;2023-02-01T15:12:30;17.75;;;11.13;;
74650;SDS011;63169;46.042;14.592;2023-02-01T15:15:15;20.40;;;9.18;;
74650;SDS011;63169;46.042;14.592;2023-02-01T15:17:49;25.13;;;15.63;;
74650;SDS011;63169;46.042;14.592;2023-02-01T15:20:23;22.67;;;14.85;;
74650;SDS011;63169;46.042;14.592;2023-02-01T15:22:53;23.42;;;13.70;;
74650;SDS011;63169;46.042;14.592;2023-02-01T15:25:21;14.88;;;10.68;;
74650;SDS011;63169;46.042;14.592;2023-02-01T15:27:49;14.52;;;10.48;;
74650;SDS011;63169;46.042;14.592;2023-02-01T15:32:43;14.68;;;9.82;;
74650;SDS011;63169;46.042;14.592;2023-02-01T15:40:53;15.80;;;10.13;;
74650;SDS011;63169;46.042;14.592;2023-02-01T15:46:21;13.43;;;10.35;;
74650;SDS011;63169;46.042;14.592;2023-02-01T15:48:51;16.27;;;10.93;;
74650;SDS011;63169;46.042;14.592;2023-02-01T15:51:19;16.98;;;10.23;;
74650;SDS011;63169;46.042;14.592;2023-02-01T15:53:48;15.73;;;11.02;;
74650;SDS011;63169;46.042;14.592;2023-02-01T15:56:16;20.08;;;12.32;;
74650;SDS011;63169;46.042;14.592;2023-02-01T15:58:47;25.17;;;15.93;;
74650;SDS011;63169;46.042;14.592;2023-02-01T16:01:14;20.42;;;9.60;;
74650;SDS011;63169;46.042;14.592;2023-02-01T16:03:41;23.83;;;14.27;;
74650;SDS011;63169;46.042;14.592;2023-02-01T16:08:36;20.60;;;12.60;;
74650;SDS011;63169;46.042;14.592;2023-02-01T16:13:33;11.75;;;9.35;;
74650;SDS011;63169;46.042;14.592;2023-02-01T16:15:59;14.93;;;7.22;;
74650;SDS011;63169;46.042;14.592;2023-02-01T16:18:25;15.50;;;9.63;;
74650;SDS011;63169;46.042;14.592;2023-02-01T16:20:50;19.23;;;10.85;;
74650;SDS011;63169;46.042;14.592;2023-02-01T16:23:15;17.88;;;7.80;;
74650;SDS011;63169;46.042;14.592;2023-02-01T16:25:41;16.90;;;12.05;;
74650;SDS011;63169;46.042;14.592;2023-02-01T16:28:06;21.45;;;13.30;;
74650;SDS011;63169;46.042;14.592;2023-02-01T16:30:33;17.83;;;12.30;;
74650;SDS011;63169;46.042;14.592;2023-02-01T16:32:59;19.30;;;10.75;;
74650;SDS011;63169;46.042;14.592;2023-02-01T16:35:31;22.42;;;14.40;;
74650;SDS011;63169;46.042;14.592;2023-02-01T16:38:01;26.23;;;16.02;;
74650;SDS011;63169;46.042;14.592;2023-02-01T16:40:37;20.73;;;16.33;;
74650;SDS011;63169;46.042;14.592;2023-02-01T16:43:05;19.52;;;14.55;;
74650;SDS011;63169;46.042;14.592;2023-02-01T16:45:36;20.00;;;10.13;;
74650;SDS011;63169;46.042;14.592;2023-02-01T16:48:02;21.23;;;12.93;;
74650;SDS011;63169;46.042;14.592;2023-02-01T16:50:29;21.70;;;13.93;;
74650;SDS011;63169;46.042;14.592;2023-02-01T16:52:57;28.55;;;14.55;;
74650;SDS011;63169;46.042;14.592;2023-02-01T16:55:23;28.48;;;18.10;;
74650;SDS011;63169;46.042;14.592;2023-02-01T16:57:48;23.05;;;14.45;;
74650;SDS011;63169;46.042;14.592;2023-02-01T17:00:14;22.00;;;13.00;;
74650;SDS011;63169;46.042;14.592;2023-02-01T17:02:44;47.20;;;23.20;;
74650;SDS011;63169;46.042;14.592;2023-02-01T17:05:10;24.13;;;11.40;;
74650;SDS011;63169;46.042;14.592;2023-02-01T17:07:36;21.40;;;15.63;;
74650;SDS011;63169;46.042;14.592;2023-02-01T17:10:04;21.42;;;14.70;;
74650;SDS011;63169;46.042;14.592;2023-02-01T17:12:31;22.58;;;15.07;;
74650;SDS011;63169;46.042;14.592;2023-02-01T17:14:57;22.17;;;15.23;;
74650;SDS011;63169;46.042;14.592;2023-02-01T17:17:23;19.33;;;13.88;;
74650;SDS011;63169;46.042;14.592;2023-02-01T17:19:51;25.15;;;12.32;;
74650;SDS011;63169;46.042;14.592;2023-02-01T17:22:18;24.05;;;10.77;;
74650;SDS011;63169;46.042;14.592;2023-02-01T17:24:44;24.00;;;15.57;;